createdAt,value
2023-08-31T00:00:13.656Z,94.97
2023-08-31T00:03:02.369Z,94.89
2023-08-31T00:05:31.137Z,94.78
2023-08-31T00:07:59.574Z,94.65
2023-08-31T00:10:30.307Z,94.85
2023-08-31T00:12:58.877Z,94.95
2023-08-31T00:15:29.127Z,94.94
2023-08-31T00:17:57.516Z,95.05
2023-08-31T00:20:27.265Z,95.30
2023-08-31T00:22:55.897Z,95.33
2023-08-31T00:25:24.699Z,95.16
2023-08-31T00:27:55.369Z,94.97
2023-08-31T00:30:26.574Z,94.94
2023-08-31T00:32:55.827Z,94.87
2023-08-31T00:35:25.067Z,94.80
2023-08-31T00:37:59.123Z,94.77
2023-08-31T00:40:28.783Z,94.90
2023-08-31T00:42:57.515Z,94.66
2023-08-31T00:45:26.651Z,94.50
2023-08-31T00:47:55.164Z,94.67
2023-08-31T00:50:23.485Z,94.56
2023-08-31T00:52:53.057Z,94.39
2023-08-31T00:55:21.430Z,94.40
2023-08-31T00:57:50.286Z,94.54
2023-08-31T01:00:19.294Z,94.43
2023-08-31T01:02:55.405Z,94.43
2023-08-31T01:05:33.243Z,94.69
2023-08-31T01:08:12.752Z,94.49
2023-08-31T01:10:46.739Z,94.50
2023-08-31T01:13:17.023Z,94.46
2023-08-31T01:15:47.637Z,94.53
2023-08-31T01:18:18.191Z,94.62
2023-08-31T01:20:53.929Z,94.64
2023-08-31T01:23:23.524Z,94.59
2023-08-31T01:25:52.276Z,94.48
2023-08-31T01:28:20.728Z,94.56
2023-08-31T01:30:49.259Z,94.59
2023-08-31T01:33:17.975Z,94.46
2023-08-31T01:35:49.886Z,94.41
2023-08-31T01:38:23.541Z,94.42
2023-08-31T01:41:03.799Z,94.44
2023-08-31T01:43:34.523Z,94.42
2023-08-31T01:46:03.311Z,94.41
2023-08-31T01:48:33.548Z,94.44
2023-08-31T01:51:02.273Z,94.53
2023-08-31T01:53:30.546Z,94.50
2023-08-31T01:55:59.252Z,94.65
2023-08-31T01:58:27.614Z,94.52
2023-08-31T02:00:57.394Z,94.72
2023-08-31T02:03:26.514Z,94.67
2023-08-31T02:05:55.214Z,94.61
2023-08-31T02:08:23.572Z,94.63
2023-08-31T02:10:52.216Z,94.72
2023-08-31T02:13:20.731Z,94.78
2023-08-31T02:15:53.530Z,94.86
2023-08-31T02:18:22.181Z,94.85
2023-08-31T02:20:53.943Z,94.80
2023-08-31T02:23:22.340Z,94.94
2023-08-31T02:25:50.722Z,94.84
2023-08-31T02:28:20.091Z,95.11
2023-08-31T02:30:59.266Z,94.91
2023-08-31T02:33:27.607Z,95.07
2023-08-31T02:35:56.315Z,94.98
2023-08-31T02:38:24.880Z,94.86
2023-08-31T02:40:53.252Z,94.93
2023-08-31T02:43:21.689Z,95.44
2023-08-31T02:45:49.951Z,95.11
2023-08-31T02:48:18.974Z,95.34
2023-08-31T02:50:47.454Z,95.27
2023-08-31T02:53:16.018Z,95.37
2023-08-31T02:55:44.497Z,95.47
2023-08-31T02:58:12.774Z,95.45
2023-08-31T03:00:43.338Z,95.46
2023-08-31T03:03:12.122Z,95.84
2023-08-31T03:05:41.259Z,95.78
2023-08-31T03:08:09.790Z,95.93
2023-08-31T03:10:38.962Z,95.90
2023-08-31T03:13:07.308Z,95.69
2023-08-31T03:15:35.656Z,95.84
2023-08-31T03:18:04.962Z,95.54
2023-08-31T03:20:33.297Z,95.53
2023-08-31T03:23:01.790Z,95.52
2023-08-31T03:25:30.700Z,95.67
2023-08-31T03:27:59.379Z,95.79
2023-08-31T03:30:29.294Z,96.10
2023-08-31T03:32:57.759Z,96.12
2023-08-31T03:35:27.755Z,96.31
2023-08-31T03:37:56.521Z,96.26
2023-08-31T03:40:24.931Z,96.30
2023-08-31T03:42:54.432Z,96.29
2023-08-31T03:45:23.065Z,96.34
2023-08-31T03:47:51.437Z,96.51
2023-08-31T03:50:20.446Z,96.44
2023-08-31T03:52:48.776Z,96.72
2023-08-31T03:55:17.241Z,96.65
2023-08-31T03:57:45.563Z,96.49
2023-08-31T04:00:15.552Z,96.41
2023-08-31T04:02:45.144Z,96.59
2023-08-31T04:05:15.627Z,96.38
2023-08-31T04:07:43.941Z,96.39
2023-08-31T04:10:12.634Z,96.44
2023-08-31T04:12:43.487Z,96.44
2023-08-31T04:15:14.264Z,96.25
2023-08-31T04:17:42.839Z,96.29
2023-08-31T04:20:12.795Z,96.13
2023-08-31T04:22:41.175Z,96.24
2023-08-31T04:25:10.079Z,96.17
2023-08-31T04:27:40.427Z,96.37
2023-08-31T04:30:11.155Z,96.60
2023-08-31T04:32:39.697Z,96.33
2023-08-31T04:35:09.885Z,96.32
2023-08-31T04:37:38.223Z,96.18
2023-08-31T04:40:09.553Z,96.06
2023-08-31T04:42:38.482Z,96.18
2023-08-31T04:45:08.877Z,95.99
2023-08-31T04:47:37.458Z,95.69
2023-08-31T04:50:08.503Z,95.56
2023-08-31T04:52:36.822Z,95.47
2023-08-31T04:55:08.569Z,95.33
2023-08-31T04:57:36.850Z,95.35
2023-08-31T05:00:09.567Z,95.31
2023-08-31T05:02:37.972Z,94.94
2023-08-31T05:05:08.149Z,95.05
2023-08-31T05:07:36.751Z,94.82
2023-08-31T05:10:07.821Z,94.73
2023-08-31T05:12:36.467Z,94.68
2023-08-31T05:15:06.327Z,94.33
2023-08-31T05:17:34.619Z,93.61
2023-08-31T05:20:05.301Z,93.55
2023-08-31T05:22:33.975Z,93.20
2023-08-31T05:25:02.366Z,91.83
2023-08-31T05:27:30.841Z,91.27
2023-08-31T05:29:59.367Z,91.34
2023-08-31T05:32:30.523Z,91.40
2023-08-31T05:35:00.071Z,90.68
2023-08-31T05:37:33.875Z,89.91
2023-08-31T05:40:06.733Z,89.51
2023-08-31T05:42:35.194Z,89.22
2023-08-31T05:45:04.855Z,88.13
2023-08-31T05:47:33.339Z,87.48
2023-08-31T05:50:01.920Z,87.10
2023-08-31T05:52:30.286Z,86.11
2023-08-31T05:54:58.837Z,85.66
2023-08-31T05:57:29.572Z,86.18
2023-08-31T05:59:57.939Z,85.41
2023-08-31T06:02:26.434Z,85.26
2023-08-31T06:04:54.992Z,85.31
2023-08-31T06:07:23.736Z,83.82
2023-08-31T06:09:52.351Z,83.17
2023-08-31T06:12:21.060Z,83.36
2023-08-31T06:14:49.847Z,83.07
2023-08-31T06:17:18.178Z,81.84
2023-08-31T06:19:46.628Z,79.81
2023-08-31T06:22:14.958Z,78.99
2023-08-31T06:24:43.445Z,79.83
2023-08-31T06:27:13.169Z,79.97
2023-08-31T06:29:41.758Z,80.67
2023-08-31T06:32:10.191Z,80.99
2023-08-31T06:34:38.720Z,81.60
2023-08-31T06:37:07.162Z,82.11
2023-08-31T06:39:36.540Z,82.48
2023-08-31T06:42:05.939Z,81.49
2023-08-31T06:44:34.788Z,80.58
2023-08-31T06:47:03.969Z,79.32
2023-08-31T06:49:33.479Z,79.61
2023-08-31T06:52:03.384Z,78.71
2023-08-31T06:54:32.866Z,77.98
2023-08-31T06:57:01.348Z,77.76
2023-08-31T06:59:29.773Z,77.44
2023-08-31T07:01:58.634Z,77.93
2023-08-31T07:04:29.121Z,76.40
2023-08-31T07:06:57.652Z,76.77
2023-08-31T07:09:27.677Z,76.96
2023-08-31T07:11:56.194Z,77.21
2023-08-31T07:14:24.702Z,78.22
2023-08-31T07:16:53.459Z,77.81
2023-08-31T07:19:22.203Z,76.85
2023-08-31T07:21:50.539Z,77.55
2023-08-31T07:24:18.994Z,77.61
2023-08-31T07:26:47.358Z,77.76
2023-08-31T07:29:15.665Z,77.58
2023-08-31T07:31:44.123Z,76.65
2023-08-31T07:34:12.909Z,76.03
2023-08-31T07:36:42.930Z,75.73
2023-08-31T07:39:11.263Z,75.51
2023-08-31T07:41:39.857Z,75.23
2023-08-31T07:44:08.563Z,76.46
2023-08-31T07:46:36.915Z,76.66
2023-08-31T07:49:05.601Z,76.49
2023-08-31T07:51:34.009Z,76.14
2023-08-31T07:54:03.991Z,75.74
2023-08-31T07:56:32.438Z,76.26
2023-08-31T07:59:00.734Z,75.79
2023-08-31T08:01:29.395Z,74.24
2023-08-31T08:03:57.927Z,73.79
2023-08-31T08:06:26.346Z,74.08
2023-08-31T08:08:55.080Z,74.49
2023-08-31T08:11:24.692Z,73.66
2023-08-31T08:13:53.163Z,73.55
2023-08-31T08:16:21.613Z,71.76
2023-08-31T08:18:52.121Z,70.27
2023-08-31T08:21:21.358Z,69.80
2023-08-31T08:23:51.443Z,67.75
2023-08-31T08:26:19.989Z,69.11
2023-08-31T08:28:49.169Z,68.48
2023-08-31T08:31:17.617Z,66.62
2023-08-31T08:33:46.005Z,64.18
2023-08-31T08:36:14.490Z,65.62
2023-08-31T08:38:42.874Z,62.85
2023-08-31T08:41:12.479Z,61.69
2023-08-31T08:43:44.813Z,62.17
2023-08-31T08:46:13.649Z,62.16
2023-08-31T08:48:42.936Z,64.25
2023-08-31T08:51:11.632Z,64.25
2023-08-31T08:53:42.641Z,63.77
2023-08-31T08:56:11.360Z,62.02
2023-08-31T08:58:39.967Z,60.14
2023-08-31T09:01:09.173Z,60.38
2023-08-31T09:03:37.596Z,59.58
2023-08-31T09:06:08.747Z,59.13
2023-08-31T09:08:38.019Z,61.28
2023-08-31T09:11:06.661Z,62.80
2023-08-31T09:13:34.975Z,61.79
2023-08-31T09:16:04.043Z,60.70
2023-08-31T09:18:33.713Z,59.64
2023-08-31T09:21:03.496Z,60.86
2023-08-31T09:23:32.480Z,59.85
2023-08-31T09:26:00.925Z,61.69
2023-08-31T09:28:29.870Z,61.62
2023-08-31T09:31:06.881Z,61.05
2023-08-31T09:33:36.285Z,60.03
2023-08-31T09:36:08.223Z,59.45
2023-08-31T09:38:44.146Z,59.06
2023-08-31T09:41:12.925Z,56.86
2023-08-31T09:43:41.363Z,55.97
2023-08-31T09:46:10.939Z,56.00
2023-08-31T09:48:41.463Z,56.44
2023-08-31T09:51:12.020Z,57.01
2023-08-31T09:53:41.002Z,58.37
2023-08-31T09:56:14.498Z,57.40
2023-08-31T09:58:43.037Z,57.21
2023-08-31T10:01:23.905Z,58.17
2023-08-31T10:03:58.094Z,56.68
2023-08-31T10:06:27.674Z,56.95
2023-08-31T10:08:56.860Z,56.88
2023-08-31T10:11:26.861Z,57.08
2023-08-31T10:13:57.736Z,55.57
2023-08-31T10:16:27.856Z,55.53
2023-08-31T10:18:56.997Z,56.15
2023-08-31T10:21:25.696Z,55.54
2023-08-31T10:23:54.349Z,55.47
2023-08-31T10:26:27.227Z,54.62
2023-08-31T10:28:57.552Z,52.94
2023-08-31T10:31:28.973Z,52.84
2023-08-31T10:33:58.897Z,52.22
2023-08-31T10:36:39.036Z,53.51
2023-08-31T10:39:13.337Z,53.93
2023-08-31T10:41:42.468Z,55.11
2023-08-31T10:44:21.115Z,54.82
2023-08-31T10:46:51.034Z,54.02
2023-08-31T10:49:21.024Z,53.61
2023-08-31T10:51:51.039Z,52.42
2023-08-31T10:54:24.570Z,51.79
2023-08-31T10:57:03.557Z,53.01
2023-08-31T10:59:49.411Z,54.01
2023-08-31T11:02:35.882Z,53.20
2023-08-31T11:05:08.381Z,53.92
2023-08-31T11:07:37.964Z,54.43
2023-08-31T11:10:18.003Z,54.27
2023-08-31T11:12:47.946Z,55.10
2023-08-31T11:15:17.709Z,54.75
2023-08-31T11:17:47.030Z,54.91
2023-08-31T11:20:17.083Z,55.20
2023-08-31T11:22:47.099Z,55.76
2023-08-31T11:25:16.578Z,55.09
2023-08-31T11:27:55.186Z,55.22
2023-08-31T11:30:23.658Z,54.05
2023-08-31T11:32:53.121Z,54.38
2023-08-31T11:35:24.193Z,55.05
2023-08-31T11:37:55.879Z,55.38
2023-08-31T11:40:24.693Z,55.56
2023-08-31T11:42:53.337Z,55.65
2023-08-31T11:45:23.839Z,55.81
2023-08-31T11:47:52.493Z,53.20
2023-08-31T11:50:21.906Z,52.48
2023-08-31T11:52:51.212Z,51.56
2023-08-31T11:55:19.791Z,52.65
2023-08-31T11:57:52.627Z,53.24
2023-08-31T12:00:22.626Z,53.18
2023-08-31T12:02:59.063Z,50.39
2023-08-31T12:05:28.215Z,50.07
2023-08-31T12:07:57.470Z,51.35
2023-08-31T12:10:27.467Z,52.11
2023-08-31T12:13:09.591Z,50.98
2023-08-31T12:15:38.090Z,51.66
2023-08-31T12:18:10.480Z,51.02
2023-08-31T12:20:45.967Z,50.07
2023-08-31T12:23:15.879Z,49.63
2023-08-31T12:25:48.642Z,50.31
2023-08-31T12:28:17.660Z,49.20
2023-08-31T12:30:49.545Z,49.60
2023-08-31T12:33:18.387Z,49.32
2023-08-31T12:35:47.252Z,49.30
2023-08-31T12:38:16.132Z,48.58
2023-08-31T12:40:44.367Z,46.82
2023-08-31T12:43:13.168Z,45.12
2023-08-31T12:45:42.039Z,45.55
2023-08-31T12:48:10.522Z,46.65
2023-08-31T12:50:38.868Z,47.23
2023-08-31T12:53:07.476Z,46.43
2023-08-31T12:55:36.261Z,46.89
2023-08-31T12:58:04.938Z,47.44
2023-08-31T13:00:34.027Z,46.90
2023-08-31T13:03:03.703Z,47.40
2023-08-31T13:05:32.174Z,46.19
2023-08-31T13:08:00.549Z,45.58
2023-08-31T13:10:29.368Z,45.30
2023-08-31T13:12:58.155Z,44.71
2023-08-31T13:15:26.659Z,44.31
2023-08-31T13:17:54.986Z,44.05
2023-08-31T13:20:23.800Z,43.31
2023-08-31T13:22:52.243Z,42.28
2023-08-31T13:25:25.394Z,40.55
2023-08-31T13:27:56.149Z,40.67
2023-08-31T13:30:25.035Z,40.30
2023-08-31T13:32:53.682Z,41.01
2023-08-31T13:35:22.107Z,40.68
2023-08-31T13:37:50.919Z,41.58
2023-08-31T13:40:19.520Z,41.93
2023-08-31T13:42:57.714Z,42.62
2023-08-31T13:45:26.544Z,41.72
2023-08-31T13:47:55.124Z,42.51
2023-08-31T13:50:24.089Z,43.32
2023-08-31T13:52:52.581Z,43.87
2023-08-31T13:55:21.082Z,43.47
2023-08-31T13:57:50.005Z,43.95
2023-08-31T14:00:19.461Z,43.46
2023-08-31T14:02:48.078Z,44.28
2023-08-31T14:05:16.661Z,44.81
2023-08-31T14:07:45.105Z,45.24
2023-08-31T14:10:13.735Z,45.94
2023-08-31T14:12:42.119Z,47.69
2023-08-31T14:15:11.540Z,50.22
2023-08-31T14:17:39.908Z,53.37
2023-08-31T14:20:11.964Z,56.18
2023-08-31T14:22:43.239Z,57.88
2023-08-31T14:25:12.636Z,58.95
2023-08-31T14:27:41.786Z,59.40
2023-08-31T14:30:11.769Z,61.11
2023-08-31T14:32:40.882Z,61.89
2023-08-31T14:35:10.757Z,63.03
2023-08-31T14:37:39.818Z,62.64
2023-08-31T14:40:10.578Z,62.44
2023-08-31T14:42:40.746Z,62.21
2023-08-31T14:45:10.446Z,62.25
2023-08-31T14:47:39.402Z,62.22
2023-08-31T14:50:10.313Z,62.16
2023-08-31T14:52:38.853Z,62.19
2023-08-31T14:55:09.473Z,63.85
2023-08-31T14:57:42.483Z,65.55
2023-08-31T15:00:13.862Z,67.88
2023-08-31T15:02:42.789Z,69.54
2023-08-31T15:05:12.431Z,69.36
2023-08-31T15:07:42.485Z,70.60
2023-08-31T15:10:12.278Z,70.37
2023-08-31T15:12:41.017Z,71.38
2023-08-31T15:15:11.094Z,72.17
2023-08-31T15:17:39.800Z,72.11
2023-08-31T15:20:11.357Z,74.35
2023-08-31T15:22:40.026Z,74.75
2023-08-31T15:25:09.749Z,75.31
2023-08-31T15:27:38.382Z,75.64
2023-08-31T15:30:09.261Z,74.56
2023-08-31T15:32:39.095Z,72.11
2023-08-31T15:35:08.761Z,69.66
2023-08-31T15:37:37.374Z,68.81
2023-08-31T15:40:08.387Z,68.09
2023-08-31T15:42:37.474Z,67.92
2023-08-31T15:45:08.662Z,67.66
2023-08-31T15:47:37.866Z,67.85
2023-08-31T15:50:08.420Z,68.34
2023-08-31T15:52:37.008Z,68.75
2023-08-31T15:55:07.716Z,69.02
2023-08-31T15:57:37.076Z,69.46
2023-08-31T16:00:08.874Z,68.34
2023-08-31T16:02:37.982Z,68.00
2023-08-31T16:05:08.345Z,68.20
2023-08-31T16:07:38.337Z,68.36
2023-08-31T16:10:09.013Z,68.86
2023-08-31T16:12:37.909Z,69.45
2023-08-31T16:15:09.744Z,68.85
2023-08-31T16:17:39.083Z,67.99
2023-08-31T16:20:11.606Z,66.78
2023-08-31T16:22:40.502Z,63.92
2023-08-31T16:25:12.147Z,61.98
2023-08-31T16:27:40.829Z,62.02
2023-08-31T16:30:11.701Z,62.30
2023-08-31T16:32:40.547Z,62.41
2023-08-31T16:35:11.002Z,62.82
2023-08-31T16:37:41.833Z,63.62
2023-08-31T16:40:12.419Z,64.49
2023-08-31T16:42:42.116Z,65.29
2023-08-31T16:45:11.450Z,65.37
2023-08-31T16:47:40.442Z,66.06
2023-08-31T16:50:10.613Z,67.10
2023-08-31T16:52:39.524Z,67.82
2023-08-31T16:55:09.206Z,68.59
2023-08-31T16:57:38.095Z,69.26
2023-08-31T17:00:12.571Z,70.17
2023-08-31T17:02:41.578Z,69.73
2023-08-31T17:05:10.774Z,69.97
2023-08-31T17:07:39.396Z,70.02
2023-08-31T17:10:09.930Z,69.88
2023-08-31T17:12:38.641Z,70.47
2023-08-31T17:15:09.705Z,70.39
2023-08-31T17:17:38.393Z,68.78
2023-08-31T17:20:16.750Z,69.41
2023-08-31T17:22:45.738Z,69.84
2023-08-31T17:25:14.960Z,69.68
2023-08-31T17:27:43.829Z,69.52
2023-08-31T17:30:12.821Z,69.74
2023-08-31T17:32:41.947Z,69.88
2023-08-31T17:35:12.551Z,70.07
2023-08-31T17:37:41.545Z,70.24
2023-08-31T17:40:11.570Z,70.39
2023-08-31T17:42:41.343Z,70.58
2023-08-31T17:45:12.403Z,70.80
2023-08-31T17:47:41.024Z,70.96
2023-08-31T17:50:11.219Z,71.07
2023-08-31T17:52:39.683Z,71.26
2023-08-31T17:55:09.617Z,71.41
2023-08-31T17:57:39.420Z,71.56
2023-08-31T18:00:11.099Z,71.78
2023-08-31T18:02:39.701Z,71.99
2023-08-31T18:05:10.312Z,71.87
2023-08-31T18:07:39.198Z,72.16
2023-08-31T18:10:09.517Z,72.47
2023-08-31T18:12:40.509Z,72.52
2023-08-31T18:15:11.057Z,72.52
2023-08-31T18:17:39.713Z,72.61
2023-08-31T18:20:11.019Z,72.82
2023-08-31T18:22:39.863Z,73.00
2023-08-31T18:25:10.409Z,73.06
2023-08-31T18:27:39.208Z,73.19
2023-08-31T18:30:10.689Z,73.18
2023-08-31T18:32:40.035Z,73.08
2023-08-31T18:35:10.313Z,73.29
2023-08-31T18:37:40.519Z,73.41
2023-08-31T18:40:12.624Z,73.56
2023-08-31T18:42:41.576Z,73.61
2023-08-31T18:45:14.080Z,73.71
2023-08-31T18:47:43.084Z,73.86
2023-08-31T18:50:14.253Z,73.94
2023-08-31T18:52:44.870Z,73.95
2023-08-31T18:55:16.240Z,74.32
2023-08-31T18:57:45.461Z,74.23
2023-08-31T19:00:15.958Z,74.23
2023-08-31T19:02:45.897Z,74.50
2023-08-31T19:05:15.451Z,74.65
2023-08-31T19:07:44.213Z,74.62
2023-08-31T19:10:15.104Z,74.87
2023-08-31T19:12:46.028Z,75.19
2023-08-31T19:15:19.829Z,75.27
2023-08-31T19:17:47.828Z,75.37
2023-08-31T19:20:17.038Z,75.59
2023-08-31T19:22:46.924Z,75.58
2023-08-31T19:25:19.579Z,75.66
2023-08-31T19:27:49.280Z,75.90
2023-08-31T19:30:18.097Z,75.90
2023-08-31T19:32:47.574Z,75.67
2023-08-31T19:35:42.227Z,75.63
2023-08-31T19:38:07.871Z,75.69
2023-08-31T19:40:36.911Z,75.87
2023-08-31T19:43:06.187Z,75.78
2023-08-31T19:45:34.969Z,76.03
2023-08-31T19:48:03.842Z,76.19
2023-08-31T19:50:34.451Z,75.92
2023-08-31T19:53:03.696Z,76.29
2023-08-31T19:55:32.692Z,76.37
2023-08-31T19:58:02.470Z,76.57
2023-08-31T20:00:32.731Z,76.32
2023-08-31T20:03:01.766Z,76.32
2023-08-31T20:05:31.522Z,76.49
2023-08-31T20:08:01.255Z,76.57
2023-08-31T20:10:30.308Z,76.37
2023-08-31T20:12:59.434Z,76.88
2023-08-31T20:15:28.639Z,76.72
2023-08-31T20:17:57.473Z,76.79
2023-08-31T20:20:26.289Z,76.95
2023-08-31T20:22:55.068Z,76.94
2023-08-31T20:25:24.020Z,76.76
2023-08-31T20:27:54.138Z,76.94
2023-08-31T20:30:26.566Z,77.12
2023-08-31T20:32:55.147Z,77.19
2023-08-31T20:35:25.342Z,77.25
2023-08-31T20:37:54.085Z,77.28
2023-08-31T20:40:22.813Z,77.22
2023-08-31T20:42:54.392Z,77.16
2023-08-31T20:45:23.869Z,77.27
2023-08-31T20:47:53.470Z,77.15
2023-08-31T20:50:22.206Z,77.56
2023-08-31T20:52:53.023Z,77.58
2023-08-31T20:55:21.662Z,77.72
2023-08-31T20:57:50.413Z,77.75
2023-08-31T21:00:19.663Z,77.73
2023-08-31T21:02:50.546Z,77.55
2023-08-31T21:05:19.967Z,77.71
2023-08-31T21:07:48.697Z,77.72
2023-08-31T21:10:17.691Z,78.00
2023-08-31T21:12:46.367Z,77.98
2023-08-31T21:15:15.597Z,77.94
2023-08-31T21:17:44.156Z,77.90
2023-08-31T21:20:13.365Z,78.06
2023-08-31T21:22:42.048Z,77.94
2023-08-31T21:25:11.099Z,78.01
2023-08-31T21:27:40.243Z,78.26
2023-08-31T21:30:09.893Z,78.07
2023-08-31T21:32:38.495Z,78.18
2023-08-31T21:35:08.437Z,78.30
2023-08-31T21:37:37.430Z,78.26
2023-08-31T21:40:08.381Z,78.54
2023-08-31T21:42:36.983Z,78.73
2023-08-31T21:45:07.384Z,78.62
2023-08-31T21:47:36.117Z,78.93
2023-08-31T21:50:06.039Z,79.02
2023-08-31T21:52:34.597Z,79.03
2023-08-31T21:55:03.886Z,79.17
2023-08-31T21:57:32.791Z,79.26
2023-08-31T22:00:01.621Z,79.31
2023-08-31T22:02:30.214Z,79.42
2023-08-31T22:04:58.938Z,79.69
2023-08-31T22:07:27.759Z,79.79
2023-08-31T22:09:56.581Z,79.72
2023-08-31T22:12:25.421Z,79.90
2023-08-31T22:14:54.091Z,79.90
2023-08-31T22:17:22.844Z,80.00
2023-08-31T22:19:52.899Z,80.32
2023-08-31T22:22:22.104Z,80.27
2023-08-31T22:24:50.626Z,80.53
2023-08-31T22:27:19.474Z,80.54
2023-08-31T22:29:48.428Z,80.65
2023-08-31T22:32:17.084Z,80.90
2023-08-31T22:34:46.002Z,81.05
2023-08-31T22:37:15.588Z,81.07
2023-08-31T22:39:43.985Z,81.09
2023-08-31T22:42:12.802Z,81.31
2023-08-31T22:44:41.617Z,81.45
2023-08-31T22:47:10.869Z,81.49
2023-08-31T22:49:39.619Z,81.53
2023-08-31T22:52:10.790Z,81.64
2023-08-31T22:54:40.657Z,81.71
2023-08-31T22:57:10.372Z,81.92
2023-08-31T22:59:39.031Z,81.90
2023-08-31T23:02:08.315Z,81.79
2023-08-31T23:04:37.257Z,81.82
2023-08-31T23:07:06.950Z,82.06
2023-08-31T23:09:35.814Z,81.88
2023-08-31T23:12:06.017Z,82.06
2023-08-31T23:14:34.771Z,81.83
2023-08-31T23:17:03.619Z,81.93
2023-08-31T23:19:32.347Z,81.88
2023-08-31T23:22:00.809Z,81.85
2023-08-31T23:24:29.508Z,81.67
2023-08-31T23:26:58.380Z,81.58
2023-08-31T23:29:27.533Z,81.48
2023-08-31T23:31:56.414Z,81.54
2023-08-31T23:34:25.426Z,81.21
2023-08-31T23:36:54.021Z,81.43
2023-08-31T23:39:22.756Z,81.20
2023-08-31T23:41:51.723Z,81.39
2023-08-31T23:44:20.795Z,81.31
2023-08-31T23:46:49.567Z,81.25
2023-08-31T23:49:19.196Z,81.30
2023-08-31T23:51:47.862Z,81.43
2023-08-31T23:54:16.380Z,81.43
2023-08-31T23:56:45.025Z,81.49
2023-08-31T23:59:14.074Z,81.57
